Baltic, South Dakota
Current Conditions -  °F | °C
As of 4:56 PM on Wednesday 22 Oct 2014 (Local Time) from KFSD Reporting Station
Moderate Rain Moderate Rain  
Wind Chill: 58°   Ceiling: 5500
Heat Index: 58°   Visibility: 3mi
Dew Point: 56°   Wind: 5mph
Humidity: 93%   Direction: 160°SSE
Pressure: 29.95"   Gusts: NA
Location:  43.76°N, 96.74°W
Report Text: KFSD 222156Z 16004KT 3SM RA BR FEW048 BKN055 OVC075 14/13 A2995 RMK AO2 PK WND 27026/2109 SLP144 RAB04 P0016 T01440133 $
Loading
Personal Weather Stations






























Interactive Weather Map
Tropical Storm Tracking
New forecast layout! Learn more

10-Day Weather Forecast

Advertisements
Track Severe Weather on mobile